sensor_id;sensor_type;location;lat;lon;timestamp;pressure;altitude;pressure_sealevel;temperature;humidity
67434;BME280;54305;47.950;6.572;2023-03-01T00:00:10;94717.56;;;-4.08;100.00
67434;BME280;54305;47.950;6.572;2023-03-01T00:02:35;94722.06;;;-4.15;100.00
67434;BME280;54305;47.950;6.572;2023-03-01T00:05:01;94714.22;;;-4.29;100.00
67434;BME280;54305;47.950;6.572;2023-03-01T00:07:26;94708.56;;;-4.35;100.00
67434;BME280;54305;47.950;6.572;2023-03-01T00:09:52;94708.16;;;-4.26;100.00
67434;BME280;54305;47.950;6.572;2023-03-01T00:12:19;94716.41;;;-4.21;100.00
67434;BME280;54305;47.950;6.572;2023-03-01T00:14:44;94715.06;;;-4.10;100.00
67434;BME280;54305;47.950;6.572;2023-03-01T00:17:10;94712.28;;;-4.24;100.00
67434;BME280;54305;47.950;6.572;2023-03-01T00:19:35;94715.50;;;-4.39;100.00
67434;BME280;54305;47.950;6.572;2023-03-01T00:22:00;94710.63;;;-4.43;100.00
67434;BME280;54305;47.950;6.572;2023-03-01T00:24:25;94713.91;;;-4.41;100.00
67434;BME280;54305;47.950;6.572;2023-03-01T00:26:52;94716.38;;;-4.40;100.00
67434;BME280;54305;47.950;6.572;2023-03-01T00:29:18;94718.94;;;-4.40;100.00
67434;BME280;54305;47.950;6.572;2023-03-01T00:31:43;94713.25;;;-4.26;100.00
67434;BME280;54305;47.950;6.572;2023-03-01T00:34:09;94705.91;;;-4.14;100.00
67434;BME280;54305;47.950;6.572;2023-03-01T00:36:35;94709.88;;;-4.07;100.00
67434;BME280;54305;47.950;6.572;2023-03-01T00:39:01;94705.47;;;-3.85;100.00
67434;BME280;54305;47.950;6.572;2023-03-01T00:41:26;94712.03;;;-3.79;100.00
67434;BME280;54305;47.950;6.572;2023-03-01T00:43:52;94698.06;;;-3.89;100.00
67434;BME280;54305;47.950;6.572;2023-03-01T00:46:18;94707.78;;;-3.79;100.00
67434;BME280;54305;47.950;6.572;2023-03-01T00:48:44;94706.47;;;-3.69;100.00
67434;BME280;54305;47.950;6.572;2023-03-01T00:51:11;94698.47;;;-3.80;100.00
67434;BME280;54305;47.950;6.572;2023-03-01T00:53:36;94692.69;;;-3.83;100.00
67434;BME280;54305;47.950;6.572;2023-03-01T00:56:02;94696.34;;;-3.89;100.00
67434;BME280;54305;47.950;6.572;2023-03-01T00:58:28;94701.91;;;-3.99;100.00
67434;BME280;54305;47.950;6.572;2023-03-01T01:00:53;94696.81;;;-4.18;100.00
67434;BME280;54305;47.950;6.572;2023-03-01T01:03:19;94694.03;;;-4.32;100.00
67434;BME280;54305;47.950;6.572;2023-03-01T01:05:44;94701.72;;;-4.33;100.00
67434;BME280;54305;47.950;6.572;2023-03-01T01:08:10;94701.66;;;-4.52;100.00
67434;BME280;54305;47.950;6.572;2023-03-01T01:10:35;94698.09;;;-4.48;100.00
67434;BME280;54305;47.950;6.572;2023-03-01T01:13:00;94700.84;;;-4.52;100.00
67434;BME280;54305;47.950;6.572;2023-03-01T01:15:26;94695.16;;;-4.39;100.00
67434;BME280;54305;47.950;6.572;2023-03-01T01:17:52;94691.09;;;-4.43;100.00
67434;BME280;54305;47.950;6.572;2023-03-01T01:20:17;94684.63;;;-4.50;100.00
67434;BME280;54305;47.950;6.572;2023-03-01T01:22:42;94688.56;;;-4.43;100.00
67434;BME280;54305;47.950;6.572;2023-03-01T01:25:08;94684.63;;;-4.50;100.00
67434;BME280;54305;47.950;6.572;2023-03-01T01:27:33;94681.72;;;-4.61;100.00
67434;BME280;54305;47.950;6.572;2023-03-01T01:29:59;94670.03;;;-4.65;100.00
67434;BME280;54305;47.950;6.572;2023-03-01T01:32:24;94670.53;;;-4.77;100.00
67434;BME280;54305;47.950;6.572;2023-03-01T01:34:49;94670.16;;;-4.68;100.00
67434;BME280;54305;47.950;6.572;2023-03-01T01:37:14;94675.50;;;-4.74;100.00
67434;BME280;54305;47.950;6.572;2023-03-01T01:39:40;94671.03;;;-4.89;100.00
67434;BME280;54305;47.950;6.572;2023-03-01T01:42:05;94670.41;;;-4.94;100.00
67434;BME280;54305;47.950;6.572;2023-03-01T01:44:33;94664.19;;;-4.87;100.00
67434;BME280;54305;47.950;6.572;2023-03-01T01:47:00;94666.06;;;-4.72;100.00
67434;BME280;54305;47.950;6.572;2023-03-01T01:52:11;94659.72;;;-4.62;100.00
67434;BME280;54305;47.950;6.572;2023-03-01T01:54:40;94648.94;;;-4.47;100.00
67434;BME280;54305;47.950;6.572;2023-03-01T01:57:07;94649.59;;;-4.23;100.00
67434;BME280;54305;47.950;6.572;2023-03-01T01:59:34;94650.81;;;-4.32;100.00
67434;BME280;54305;47.950;6.572;2023-03-01T02:02:00;94644.38;;;-4.59;100.00
67434;BME280;54305;47.950;6.572;2023-03-01T02:04:27;94646.91;;;-4.79;100.00
67434;BME280;54305;47.950;6.572;2023-03-01T02:07:03;94643.75;;;-4.84;100.00
67434;BME280;54305;47.950;6.572;2023-03-01T02:09:30;94639.56;;;-4.85;100.00
67434;BME280;54305;47.950;6.572;2023-03-01T02:11:57;94645.75;;;-4.92;100.00
67434;BME280;54305;47.950;6.572;2023-03-01T02:14:23;94633.84;;;-4.90;100.00
67434;BME280;54305;47.950;6.572;2023-03-01T02:16:48;94633.47;;;-4.81;100.00
67434;BME280;54305;47.950;6.572;2023-03-01T02:19:31;94624.28;;;-4.83;100.00
67434;BME280;54305;47.950;6.572;2023-03-01T02:22:04;94631.56;;;-4.76;100.00
67434;BME280;54305;47.950;6.572;2023-03-01T02:24:40;94630.03;;;-4.80;100.00
67434;BME280;54305;47.950;6.572;2023-03-01T02:27:10;94636.25;;;-4.87;100.00
67434;BME280;54305;47.950;6.572;2023-03-01T02:29:35;94628.31;;;-4.99;100.00
67434;BME280;54305;47.950;6.572;2023-03-01T02:32:01;94624.34;;;-5.05;100.00
67434;BME280;54305;47.950;6.572;2023-03-01T02:34:28;94625.97;;;-5.04;100.00
67434;BME280;54305;47.950;6.572;2023-03-01T02:37:03;94619.25;;;-5.05;100.00
67434;BME280;54305;47.950;6.572;2023-03-01T02:39:39;94622.53;;;-5.03;100.00
67434;BME280;54305;47.950;6.572;2023-03-01T02:42:07;94610.47;;;-5.18;100.00
67434;BME280;54305;47.950;6.572;2023-03-01T02:44:34;94604.78;;;-5.23;100.00
67434;BME280;54305;47.950;6.572;2023-03-01T02:47:00;94605.88;;;-5.30;100.00
67434;BME280;54305;47.950;6.572;2023-03-01T02:49:28;94591.56;;;-5.31;100.00
67434;BME280;54305;47.950;6.572;2023-03-01T02:54:33;94590.53;;;-5.27;100.00
67434;BME280;54305;47.950;6.572;2023-03-01T02:57:01;94589.53;;;-5.23;100.00
67434;BME280;54305;47.950;6.572;2023-03-01T02:59:29;94594.63;;;-5.23;100.00
67434;BME280;54305;47.950;6.572;2023-03-01T03:01:56;94600.19;;;-5.15;100.00
67434;BME280;54305;47.950;6.572;2023-03-01T03:04:21;94601.91;;;-5.15;100.00
67434;BME280;54305;47.950;6.572;2023-03-01T03:06:47;94592.06;;;-5.03;100.00
67434;BME280;54305;47.950;6.572;2023-03-01T03:09:13;94588.00;;;-4.87;100.00
67434;BME280;54305;47.950;6.572;2023-03-01T03:11:39;94588.72;;;-4.83;100.00
67434;BME280;54305;47.950;6.572;2023-03-01T03:14:05;94580.88;;;-4.79;100.00
67434;BME280;54305;47.950;6.572;2023-03-01T03:16:37;94579.25;;;-4.80;100.00
67434;BME280;54305;47.950;6.572;2023-03-01T03:19:02;94587.22;;;-4.69;100.00
67434;BME280;54305;47.950;6.572;2023-03-01T03:21:30;94572.47;;;-4.61;100.00
67434;BME280;54305;47.950;6.572;2023-03-01T03:23:55;94573.97;;;-4.57;100.00
67434;BME280;54305;47.950;6.572;2023-03-01T03:26:20;94569.31;;;-4.66;100.00
67434;BME280;54305;47.950;6.572;2023-03-01T03:28:45;94570.19;;;-4.67;100.00
67434;BME280;54305;47.950;6.572;2023-03-01T03:31:11;94575.41;;;-4.70;100.00
67434;BME280;54305;47.950;6.572;2023-03-01T03:33:36;94579.28;;;-4.61;100.00
67434;BME280;54305;47.950;6.572;2023-03-01T03:36:02;94569.09;;;-4.61;100.00
67434;BME280;54305;47.950;6.572;2023-03-01T03:38:27;94576.78;;;-4.63;100.00
67434;BME280;54305;47.950;6.572;2023-03-01T03:41:00;94567.53;;;-4.64;100.00
67434;BME280;54305;47.950;6.572;2023-03-01T03:43:27;94566.22;;;-4.54;100.00
67434;BME280;54305;47.950;6.572;2023-03-01T03:45:52;94563.97;;;-4.60;100.00
67434;BME280;54305;47.950;6.572;2023-03-01T03:48:19;94560.03;;;-4.67;100.00
67434;BME280;54305;47.950;6.572;2023-03-01T03:50:49;94558.22;;;-4.45;100.00
67434;BME280;54305;47.950;6.572;2023-03-01T03:53:14;94559.78;;;-4.42;100.00
67434;BME280;54305;47.950;6.572;2023-03-01T03:55:40;94553.13;;;-4.45;100.00
67434;BME280;54305;47.950;6.572;2023-03-01T03:58:06;94556.91;;;-4.53;100.00
67434;BME280;54305;47.950;6.572;2023-03-01T04:00:43;94559.09;;;-4.46;100.00
67434;BME280;54305;47.950;6.572;2023-03-01T04:03:09;94552.38;;;-4.28;100.00
67434;BME280;54305;47.950;6.572;2023-03-01T04:05:36;94552.72;;;-4.36;100.00
67434;BME280;54305;47.950;6.572;2023-03-01T04:08:02;94556.97;;;-4.18;100.00
67434;BME280;54305;47.950;6.572;2023-03-01T04:10:28;94537.31;;;-4.14;100.00
67434;BME280;54305;47.950;6.572;2023-03-01T04:12:54;94546.03;;;-4.20;100.00
67434;BME280;54305;47.950;6.572;2023-03-01T04:15:21;94537.81;;;-4.25;100.00
67434;BME280;54305;47.950;6.572;2023-03-01T04:17:48;94539.59;;;-4.27;100.00
67434;BME280;54305;47.950;6.572;2023-03-01T04:20:15;94537.50;;;-4.19;100.00
67434;BME280;54305;47.950;6.572;2023-03-01T04:22:49;94540.28;;;-4.23;100.00
67434;BME280;54305;47.950;6.572;2023-03-01T04:25:15;94533.00;;;-4.31;100.00
67434;BME280;54305;47.950;6.572;2023-03-01T04:27:40;94533.03;;;-4.14;100.00
67434;BME280;54305;47.950;6.572;2023-03-01T04:30:06;94526.94;;;-4.10;100.00
67434;BME280;54305;47.950;6.572;2023-03-01T04:32:32;94534.97;;;-4.19;100.00
67434;BME280;54305;47.950;6.572;2023-03-01T04:34:57;94530.13;;;-4.42;100.00
67434;BME280;54305;47.950;6.572;2023-03-01T04:37:23;94534.38;;;-4.42;100.00
67434;BME280;54305;47.950;6.572;2023-03-01T04:39:49;94525.69;;;-4.57;100.00
67434;BME280;54305;47.950;6.572;2023-03-01T04:42:14;94525.91;;;-4.61;100.00
67434;BME280;54305;47.950;6.572;2023-03-01T04:44:39;94520.22;;;-4.66;100.00
67434;BME280;54305;47.950;6.572;2023-03-01T04:47:05;94521.59;;;-4.59;100.00
67434;BME280;54305;47.950;6.572;2023-03-01T04:49:30;94513.91;;;-4.58;100.00
67434;BME280;54305;47.950;6.572;2023-03-01T04:51:56;94510.53;;;-4.40;100.00
67434;BME280;54305;47.950;6.572;2023-03-01T04:54:23;94506.47;;;-4.44;100.00
67434;BME280;54305;47.950;6.572;2023-03-01T04:56:48;94503.91;;;-4.61;100.00
67434;BME280;54305;47.950;6.572;2023-03-01T04:59:14;94503.75;;;-4.58;100.00
67434;BME280;54305;47.950;6.572;2023-03-01T05:01:39;94505.66;;;-4.63;100.00
67434;BME280;54305;47.950;6.572;2023-03-01T05:04:07;94503.06;;;-4.61;100.00
67434;BME280;54305;47.950;6.572;2023-03-01T05:06:38;94499.50;;;-4.76;100.00
67434;BME280;54305;47.950;6.572;2023-03-01T05:09:04;94497.41;;;-4.68;100.00
67434;BME280;54305;47.950;6.572;2023-03-01T05:11:30;94488.50;;;-4.58;100.00
67434;BME280;54305;47.950;6.572;2023-03-01T05:13:58;94488.66;;;-4.61;100.00
67434;BME280;54305;47.950;6.572;2023-03-01T05:16:24;94489.81;;;-4.68;100.00
67434;BME280;54305;47.950;6.572;2023-03-01T05:18:49;94488.97;;;-4.87;100.00
67434;BME280;54305;47.950;6.572;2023-03-01T05:21:16;94490.00;;;-4.91;100.00
67434;BME280;54305;47.950;6.572;2023-03-01T05:23:41;94487.09;;;-5.02;100.00
67434;BME280;54305;47.950;6.572;2023-03-01T05:26:07;94485.19;;;-4.97;100.00
67434;BME280;54305;47.950;6.572;2023-03-01T05:28:33;94481.91;;;-4.99;100.00
67434;BME280;54305;47.950;6.572;2023-03-01T05:30:58;94480.38;;;-5.03;100.00
67434;BME280;54305;47.950;6.572;2023-03-01T05:33:24;94479.44;;;-4.82;100.00
67434;BME280;54305;47.950;6.572;2023-03-01T05:35:50;94471.59;;;-4.96;100.00
67434;BME280;54305;47.950;6.572;2023-03-01T05:38:17;94475.56;;;-5.09;100.00
67434;BME280;54305;47.950;6.572;2023-03-01T05:40:43;94475.56;;;-5.09;100.00
67434;BME280;54305;47.950;6.572;2023-03-01T05:43:09;94472.81;;;-5.23;100.00
67434;BME280;54305;47.950;6.572;2023-03-01T05:45:35;94473.94;;;-5.10;100.00
67434;BME280;54305;47.950;6.572;2023-03-01T05:48:01;94470.38;;;-4.87;100.00
67434;BME280;54305;47.950;6.572;2023-03-01T05:50:27;94465.22;;;-4.86;100.00
67434;BME280;54305;47.950;6.572;2023-03-01T05:53:00;94467.34;;;-5.14;100.00
67434;BME280;54305;47.950;6.572;2023-03-01T05:55:25;94462.50;;;-5.20;100.00
67434;BME280;54305;47.950;6.572;2023-03-01T05:57:51;94464.56;;;-5.28;100.00
67434;BME280;54305;47.950;6.572;2023-03-01T06:00:17;94458.91;;;-5.34;100.00
67434;BME280;54305;47.950;6.572;2023-03-01T06:02:43;94465.78;;;-5.36;100.00
67434;BME280;54305;47.950;6.572;2023-03-01T06:05:09;94473.84;;;-5.47;100.00
67434;BME280;54305;47.950;6.572;2023-03-01T06:07:34;94474.91;;;-5.52;100.00
67434;BME280;54305;47.950;6.572;2023-03-01T06:10:00;94472.31;;;-5.51;100.00
67434;BME280;54305;47.950;6.572;2023-03-01T06:12:25;94476.00;;;-5.58;100.00
67434;BME280;54305;47.950;6.572;2023-03-01T06:14:50;94480.06;;;-5.34;100.00
67434;BME280;54305;47.950;6.572;2023-03-01T06:17:15;94477.09;;;-5.05;100.00
67434;BME280;54305;47.950;6.572;2023-03-01T06:19:41;94482.47;;;-4.92;100.00
67434;BME280;54305;47.950;6.572;2023-03-01T06:22:06;94477.38;;;-4.92;100.00
67434;BME280;54305;47.950;6.572;2023-03-01T06:24:32;94485.19;;;-4.97;100.00
67434;BME280;54305;47.950;6.572;2023-03-01T06:26:58;94485.47;;;-5.03;100.00
67434;BME280;54305;47.950;6.572;2023-03-01T06:29:23;94482.28;;;-5.08;100.00
67434;BME280;54305;47.950;6.572;2023-03-01T06:31:48;94486.13;;;-5.18;100.00
67434;BME280;54305;47.950;6.572;2023-03-01T06:34:14;94490.69;;;-5.26;100.00
67434;BME280;54305;47.950;6.572;2023-03-01T06:36:39;94484.22;;;-5.13;100.00
67434;BME280;54305;47.950;6.572;2023-03-01T06:39:05;94497.06;;;-5.17;100.00
67434;BME280;54305;47.950;6.572;2023-03-01T06:41:30;94489.56;;;-5.19;100.00
67434;BME280;54305;47.950;6.572;2023-03-01T06:43:56;94491.16;;;-4.98;100.00
67434;BME280;54305;47.950;6.572;2023-03-01T06:46:21;94485.34;;;-5.00;100.00
67434;BME280;54305;47.950;6.572;2023-03-01T06:48:46;94491.22;;;-4.99;100.00
67434;BME280;54305;47.950;6.572;2023-03-01T06:51:11;94475.31;;;-5.03;100.00
67434;BME280;54305;47.950;6.572;2023-03-01T06:53:37;94485.03;;;-5.12;100.00
67434;BME280;54305;47.950;6.572;2023-03-01T06:56:02;94489.47;;;-5.17;100.00
67434;BME280;54305;47.950;6.572;2023-03-01T06:58:27;94485.97;;;-5.15;100.00
67434;BME280;54305;47.950;6.572;2023-03-01T07:00:53;94496.38;;;-5.21;100.00
67434;BME280;54305;47.950;6.572;2023-03-01T07:03:18;94483.44;;;-5.15;100.00
67434;BME280;54305;47.950;6.572;2023-03-01T07:05:43;94477.84;;;-5.03;100.00
67434;BME280;54305;47.950;6.572;2023-03-01T07:08:09;94493.97;;;-4.67;100.00
67434;BME280;54305;47.950;6.572;2023-03-01T07:10:34;94484.91;;;-4.35;100.00
67434;BME280;54305;47.950;6.572;2023-03-01T07:13:00;94489.41;;;-4.05;100.00
67434;BME280;54305;47.950;6.572;2023-03-01T07:15:25;94485.41;;;-3.58;100.00
67434;BME280;54305;47.950;6.572;2023-03-01T07:17:51;94481.94;;;-3.23;100.00
67434;BME280;54305;47.950;6.572;2023-03-01T07:20:18;94481.34;;;-3.11;100.00
67434;BME280;54305;47.950;6.572;2023-03-01T07:22:43;94485.97;;;-3.02;100.00
67434;BME280;54305;47.950;6.572;2023-03-01T07:25:09;94478.28;;;-2.85;100.00
67434;BME280;54305;47.950;6.572;2023-03-01T07:27:35;94475.66;;;-2.83;100.00
67434;BME280;54305;47.950;6.572;2023-03-01T07:30:00;94464.25;;;-2.61;100.00
67434;BME280;54305;47.950;6.572;2023-03-01T07:32:25;94465.16;;;-2.31;100.00
67434;BME280;54305;47.950;6.572;2023-03-01T07:34:51;94467.38;;;-1.94;100.00
67434;BME280;54305;47.950;6.572;2023-03-01T07:37:16;94466.41;;;-1.62;100.00
67434;BME280;54305;47.950;6.572;2023-03-01T07:39:41;94466.47;;;-1.34;100.00
67434;BME280;54305;47.950;6.572;2023-03-01T07:42:07;94460.94;;;-1.12;98.97
67434;BME280;54305;47.950;6.572;2023-03-01T07:44:32;94465.13;;;-0.97;96.62
67434;BME280;54305;47.950;6.572;2023-03-01T07:46:59;94463.06;;;-0.77;93.68
67434;BME280;54305;47.950;6.572;2023-03-01T07:49:24;94461.41;;;-0.78;91.90
67434;BME280;54305;47.950;6.572;2023-03-01T07:51:51;94464.34;;;-0.70;94.26
67434;BME280;54305;47.950;6.572;2023-03-01T07:54:16;94455.56;;;-0.52;92.27
67434;BME280;54305;47.950;6.572;2023-03-01T07:56:43;94459.00;;;-0.25;91.74
67434;BME280;54305;47.950;6.572;2023-03-01T07:59:10;94458.00;;;0.04;89.06
67434;BME280;54305;47.950;6.572;2023-03-01T08:01:35;94460.31;;;0.21;89.09
67434;BME280;54305;47.950;6.572;2023-03-01T08:04:01;94455.28;;;0.47;86.11
67434;BME280;54305;47.950;6.572;2023-03-01T08:06:26;94453.88;;;0.55;86.18
67434;BME280;54305;47.950;6.572;2023-03-01T08:08:52;94455.75;;;0.66;84.97
67434;BME280;54305;47.950;6.572;2023-03-01T08:11:20;94455.28;;;0.47;83.10
67434;BME280;54305;47.950;6.572;2023-03-01T08:13:46;94460.59;;;-0.10;88.24
67434;BME280;54305;47.950;6.572;2023-03-01T08:16:13;94453.47;;;-0.05;92.62
67434;BME280;54305;47.950;6.572;2023-03-01T08:18:38;94451.34;;;0.28;89.60
67434;BME280;54305;47.950;6.572;2023-03-01T08:21:04;94453.88;;;0.55;89.26
67434;BME280;54305;47.950;6.572;2023-03-01T08:23:30;94447.34;;;1.13;89.46
67434;BME280;54305;47.950;6.572;2023-03-01T08:26:02;94445.06;;;1.47;89.94
67434;BME280;54305;47.950;6.572;2023-03-01T08:28:28;94440.13;;;1.69;87.70
67434;BME280;54305;47.950;6.572;2023-03-01T08:30:53;94439.66;;;1.87;86.75
67434;BME280;54305;47.950;6.572;2023-03-01T08:33:18;94447.66;;;2.19;82.40
67434;BME280;54305;47.950;6.572;2023-03-01T08:35:43;94447.22;;;2.25;79.53
67434;BME280;54305;47.950;6.572;2023-03-01T08:38:08;94445.09;;;1.22;79.65
67434;BME280;54305;47.950;6.572;2023-03-01T08:40:34;94449.59;;;1.31;82.88
67434;BME280;54305;47.950;6.572;2023-03-01T08:42:59;94438.94;;;1.37;82.57
67434;BME280;54305;47.950;6.572;2023-03-01T08:45:24;94442.38;;;1.61;82.46
67434;BME280;54305;47.950;6.572;2023-03-01T08:47:51;94437.63;;;1.80;80.19
67434;BME280;54305;47.950;6.572;2023-03-01T08:50:20;94440.03;;;1.94;80.92
67434;BME280;54305;47.950;6.572;2023-03-01T08:52:47;94448.47;;;2.43;82.65
67434;BME280;54305;47.950;6.572;2023-03-01T08:55:13;94442.81;;;2.96;78.42
67434;BME280;54305;47.950;6.572;2023-03-01T08:57:39;94432.03;;;2.80;76.22
67434;BME280;54305;47.950;6.572;2023-03-01T09:00:05;94435.50;;;2.44;74.26
67434;BME280;54305;47.950;6.572;2023-03-01T09:02:33;94428.63;;;1.62;78.84
67434;BME280;54305;47.950;6.572;2023-03-01T09:04:58;94430.66;;;1.82;78.43
67434;BME280;54305;47.950;6.572;2023-03-01T09:07:23;94426.44;;;2.28;77.96
67434;BME280;54305;47.950;6.572;2023-03-01T09:09:53;94416.97;;;2.05;78.87
67434;BME280;54305;47.950;6.572;2023-03-01T09:12:19;94425.97;;;2.23;77.07
67434;BME280;54305;47.950;6.572;2023-03-01T09:14:44;94412.34;;;2.33;80.46
67434;BME280;54305;47.950;6.572;2023-03-01T09:17:09;94408.63;;;2.83;78.53
67434;BME280;54305;47.950;6.572;2023-03-01T09:19:35;94403.31;;;3.63;75.16
67434;BME280;54305;47.950;6.572;2023-03-01T09:22:00;94404.31;;;4.04;68.27
67434;BME280;54305;47.950;6.572;2023-03-01T09:24:25;94395.41;;;4.40;66.55
67434;BME280;54305;47.950;6.572;2023-03-01T09:26:52;94398.03;;;4.60;67.94
67434;BME280;54305;47.950;6.572;2023-03-01T09:29:18;94403.06;;;5.23;66.87
67434;BME280;54305;47.950;6.572;2023-03-01T09:31:44;94401.16;;;5.25;67.96
67434;BME280;54305;47.950;6.572;2023-03-01T09:34:09;94401.78;;;5.68;66.08
67434;BME280;54305;47.950;6.572;2023-03-01T09:36:35;94400.91;;;5.88;61.18
67434;BME280;54305;47.950;6.572;2023-03-01T09:39:00;94397.16;;;5.32;61.04
67434;BME280;54305;47.950;6.572;2023-03-01T09:44:05;94393.38;;;6.25;61.27
67434;BME280;54305;47.950;6.572;2023-03-01T09:46:37;94395.66;;;5.69;60.63
67434;BME280;54305;47.950;6.572;2023-03-01T09:49:04;94399.13;;;6.57;62.69
67434;BME280;54305;47.950;6.572;2023-03-01T09:51:31;94398.53;;;7.20;60.10
67434;BME280;54305;47.950;6.572;2023-03-01T09:53:57;94396.31;;;7.44;57.88
67434;BME280;54305;47.950;6.572;2023-03-01T10:03:52;94383.06;;;7.83;54.57
67434;BME280;54305;47.950;6.572;2023-03-01T10:06:21;94383.69;;;8.22;54.68
67434;BME280;54305;47.950;6.572;2023-03-01T10:11:23;94369.56;;;8.07;51.17
67434;BME280;54305;47.950;6.572;2023-03-01T10:19:01;94375.31;;;7.47;51.22
67434;BME280;54305;47.950;6.572;2023-03-01T10:21:28;94370.69;;;7.95;52.57
67434;BME280;54305;47.950;6.572;2023-03-01T10:23:56;94362.75;;;8.06;53.41
67434;BME280;54305;47.950;6.572;2023-03-01T10:29:05;94350.88;;;9.26;50.16
67434;BME280;54305;47.950;6.572;2023-03-01T10:31:40;94353.31;;;9.94;48.66
67434;BME280;54305;47.950;6.572;2023-03-01T10:34:10;94352.06;;;10.64;45.76
67434;BME280;54305;47.950;6.572;2023-03-01T10:36:36;94352.72;;;10.74;45.33
67434;BME280;54305;47.950;6.572;2023-03-01T10:39:03;94348.50;;;10.73;44.99
67434;BME280;54305;47.950;6.572;2023-03-01T10:41:35;94336.97;;;10.10;46.74
67434;BME280;54305;47.950;6.572;2023-03-01T10:44:09;94343.34;;;10.23;44.57
67434;BME280;54305;47.950;6.572;2023-03-01T10:47:00;94348.44;;;10.41;47.00
67434;BME280;54305;47.950;6.572;2023-03-01T10:49:26;94355.16;;;10.75;43.27
67434;BME280;54305;47.950;6.572;2023-03-01T10:51:52;94343.47;;;11.90;42.97
67434;BME280;54305;47.950;6.572;2023-03-01T10:56:46;94338.19;;;12.67;40.81
67434;BME280;54305;47.950;6.572;2023-03-01T10:59:24;94337.78;;;11.00;40.75
67434;BME280;54305;47.950;6.572;2023-03-01T11:02:35;94342.72;;;11.73;43.38
67434;BME280;54305;47.950;6.572;2023-03-01T11:04:35;94334.22;;;12.93;39.27
67434;BME280;54305;47.950;6.572;2023-03-01T11:07:01;94330.13;;;12.54;39.78
67434;BME280;54305;47.950;6.572;2023-03-01T11:09:30;94333.16;;;12.35;38.53
67434;BME280;54305;47.950;6.572;2023-03-01T11:12:02;94317.75;;;12.93;39.00
67434;BME280;54305;47.950;6.572;2023-03-01T11:14:30;94325.66;;;13.59;38.98
67434;BME280;54305;47.950;6.572;2023-03-01T11:17:43;94324.22;;;13.42;38.62
67434;BME280;54305;47.950;6.572;2023-03-01T11:19:44;94321.34;;;14.24;38.53
67434;BME280;54305;47.950;6.572;2023-03-01T11:22:24;94323.41;;;14.64;35.93
67434;BME280;54305;47.950;6.572;2023-03-01T11:24:50;94308.53;;;14.71;37.73
67434;BME280;54305;47.950;6.572;2023-03-01T11:27:18;94309.44;;;14.78;37.20
67434;BME280;54305;47.950;6.572;2023-03-01T11:29:45;94304.69;;;14.88;34.62
67434;BME280;54305;47.950;6.572;2023-03-01T11:32:12;94295.84;;;15.99;32.97
67434;BME280;54305;47.950;6.572;2023-03-01T11:34:40;94306.16;;;15.18;34.14
67434;BME280;54305;47.950;6.572;2023-03-01T11:37:13;94306.47;;;16.25;33.85
67434;BME280;54305;47.950;6.572;2023-03-01T11:39:58;94296.13;;;16.70;31.87
67434;BME280;54305;47.950;6.572;2023-03-01T11:45:01;94309.25;;;12.46;36.24
67434;BME280;54305;47.950;6.572;2023-03-01T11:47:32;94306.47;;;11.08;41.90
67434;BME280;54305;47.950;6.572;2023-03-01T12:08:12;94288.53;;;9.34;43.34
67434;BME280;54305;47.950;6.572;2023-03-01T12:10:44;94275.97;;;8.96;46.43
67434;BME280;54305;47.950;6.572;2023-03-01T12:13:22;94275.56;;;10.65;41.47
67434;BME280;54305;47.950;6.572;2023-03-01T12:26:46;94251.50;;;13.52;37.19
67434;BME280;54305;47.950;6.572;2023-03-01T12:34:38;94224.66;;;18.28;30.17
67434;BME280;54305;47.950;6.572;2023-03-01T12:44:36;94208.75;;;20.31;25.71
67434;BME280;54305;47.950;6.572;2023-03-01T12:49:33;94210.59;;;18.84;26.94
67434;BME280;54305;47.950;6.572;2023-03-01T12:52:08;94217.13;;;19.31;26.29
67434;BME280;54305;47.950;6.572;2023-03-01T12:54:36;94215.72;;;17.85;27.35
67434;BME280;54305;47.950;6.572;2023-03-01T12:57:49;94214.91;;;19.28;27.81
67434;BME280;54305;47.950;6.572;2023-03-01T13:02:52;94194.50;;;20.91;25.37
67434;BME280;54305;47.950;6.572;2023-03-01T13:10:48;94189.94;;;21.55;23.39
67434;BME280;54305;47.950;6.572;2023-03-01T13:13:19;94192.22;;;21.06;24.57
67434;BME280;54305;47.950;6.572;2023-03-01T13:15:44;94188.81;;;20.87;24.06
67434;BME280;54305;47.950;6.572;2023-03-01T13:29:11;94169.38;;;20.04;25.99
67434;BME280;54305;47.950;6.572;2023-03-01T13:31:07;94169.53;;;20.98;23.81
67434;BME280;54305;47.950;6.572;2023-03-01T13:33:37;94159.19;;;21.54;24.17
67434;BME280;54305;47.950;6.572;2023-03-01T13:36:05;94151.59;;;21.46;23.32
67434;BME280;54305;47.950;6.572;2023-03-01T13:38:37;94157.56;;;20.25;25.03
67434;BME280;54305;47.950;6.572;2023-03-01T13:41:03;94161.00;;;16.91;27.38
67434;BME280;54305;47.950;6.572;2023-03-01T13:43:30;94166.13;;;15.53;32.04
67434;BME280;54305;47.950;6.572;2023-03-01T13:45:56;94167.69;;;15.81;32.29
67434;BME280;54305;47.950;6.572;2023-03-01T13:48:23;94159.78;;;16.61;30.86
67434;BME280;54305;47.950;6.572;2023-03-01T13:51:00;94158.00;;;15.14;33.14
67434;BME280;54305;47.950;6.572;2023-03-01T13:53:29;94151.09;;;15.81;30.49
67434;BME280;54305;47.950;6.572;2023-03-01T13:55:55;94151.69;;;15.70;32.52
67434;BME280;54305;47.950;6.572;2023-03-01T14:03:21;94158.06;;;15.54;33.26
67434;BME280;54305;47.950;6.572;2023-03-01T14:06:03;94154.41;;;15.49;32.29
67434;BME280;54305;47.950;6.572;2023-03-01T14:08:31;94155.03;;;13.99;34.48
67434;BME280;54305;47.950;6.572;2023-03-01T14:18:53;94158.13;;;13.88;36.32
67434;BME280;54305;47.950;6.572;2023-03-01T14:21:22;94158.88;;;14.03;36.73
67434;BME280;54305;47.950;6.572;2023-03-01T14:23:47;94160.91;;;13.86;35.91
67434;BME280;54305;47.950;6.572;2023-03-01T14:26:13;94162.19;;;13.26;35.15
67434;BME280;54305;47.950;6.572;2023-03-01T14:28:44;94169.22;;;12.00;37.82
67434;BME280;54305;47.950;6.572;2023-03-01T14:34:16;94166.78;;;12.80;37.97
67434;BME280;54305;47.950;6.572;2023-03-01T14:36:43;94171.19;;;13.67;37.17
67434;BME280;54305;47.950;6.572;2023-03-01T14:39:16;94171.09;;;14.17;35.32
67434;BME280;54305;47.950;6.572;2023-03-01T14:41:41;94167.91;;;13.65;36.13
67434;BME280;54305;47.950;6.572;2023-03-01T14:44:07;94168.34;;;13.33;36.69